createdAt,value
2023-03-10T00:01:32.004Z,98982.94
2023-03-10T00:04:00.997Z,98974.41
2023-03-10T00:06:30.109Z,98971.03
2023-03-10T00:08:56.805Z,98976.97
2023-03-10T00:11:23.573Z,98975.31
2023-03-10T00:13:50.299Z,98980.47
2023-03-10T00:16:25.443Z,98983.03
2023-03-10T00:18:52.526Z,98976.97
2023-03-10T00:21:25.415Z,98973.59
2023-03-10T00:23:52.541Z,98975.25
2023-03-10T00:26:20.695Z,98978.63
2023-03-10T00:28:47.772Z,98982.94
2023-03-10T00:31:17.162Z,98983.78
2023-03-10T00:33:44.067Z,98981.13
2023-03-10T00:36:19.973Z,98981.13
2023-03-10T00:38:47.547Z,98974.25
2023-03-10T00:41:16.377Z,98981.97
2023-03-10T00:43:43.502Z,98985.38
2023-03-10T00:46:10.592Z,98978.56
2023-03-10T00:48:37.738Z,98977.66
2023-03-10T00:51:05.587Z,98968.28
2023-03-10T00:53:34.091Z,98973.44
2023-03-10T00:56:05.087Z,98973.44
2023-03-10T00:58:33.614Z,98979.41
2023-03-10T01:01:01.308Z,98971.69
2023-03-10T01:03:28.298Z,98982.78
2023-03-10T01:05:56.021Z,98979.25
2023-03-10T01:08:22.778Z,98961.31
2023-03-10T01:10:49.453Z,98953.63
2023-03-10T01:13:18.517Z,98968.28
2023-03-10T01:15:47.707Z,98959.66
2023-03-10T01:18:15.582Z,98957.94
2023-03-10T01:20:42.628Z,98957.94
2023-03-10T01:23:18.640Z,98965.56
2023-03-10T01:25:45.267Z,98959.53
2023-03-10T01:28:11.773Z,98959.53
2023-03-10T01:30:39.375Z,98956.84
2023-03-10T01:33:06.812Z,98944.94
2023-03-10T01:35:33.686Z,98941.44
2023-03-10T01:38:00.228Z,98944.84
2023-03-10T01:40:26.807Z,98938.00
2023-03-10T01:43:13.791Z,98932.84
2023-03-10T01:45:40.198Z,98932.84
2023-03-10T01:48:06.629Z,98936.25
2023-03-10T01:50:33.129Z,98926.84
2023-03-10T01:52:59.614Z,98922.63
2023-03-10T01:55:33.177Z,98926.84
2023-03-10T01:58:00.730Z,98920.00
2023-03-10T02:00:29.453Z,98920.00
2023-03-10T02:03:09.692Z,98915.75
2023-03-10T02:05:44.121Z,98917.44
2023-03-10T02:08:11.440Z,98916.69
2023-03-10T02:10:39.036Z,98906.50
2023-03-10T02:13:05.615Z,98913.28
2023-03-10T02:15:33.647Z,98914.19
2023-03-10T02:18:03.502Z,98911.53
2023-03-10T02:20:30.019Z,98909.06
2023-03-10T02:22:56.609Z,98910.72
2023-03-10T02:25:29.307Z,98909.88
2023-03-10T02:27:56.890Z,98905.47
2023-03-10T02:30:28.849Z,98900.44
2023-03-10T02:33:00.049Z,98887.66
2023-03-10T02:35:26.544Z,98891.97
2023-03-10T02:37:53.019Z,98889.41
2023-03-10T02:40:37.436Z,98888.50
2023-03-10T02:43:13.077Z,98873.09
2023-03-10T02:45:42.649Z,98869.69
2023-03-10T02:48:11.874Z,98868.78
2023-03-10T02:50:40.961Z,98868.84
2023-03-10T02:53:27.817Z,98873.09
2023-03-10T02:55:55.315Z,98872.19
2023-03-10T02:58:23.138Z,98868.78
2023-03-10T03:00:50.667Z,98864.63
2023-03-10T03:03:20.271Z,98859.50
2023-03-10T03:05:47.462Z,98866.28
2023-03-10T03:08:14.167Z,98873.09
2023-03-10T03:10:40.768Z,98869.84
2023-03-10T03:13:07.254Z,98868.03
2023-03-10T03:15:34.504Z,98869.69
2023-03-10T03:18:02.088Z,98863.72
2023-03-10T03:20:29.758Z,98868.78
2023-03-10T03:22:57.150Z,98861.91
2023-03-10T03:25:25.012Z,98859.34
2023-03-10T03:27:51.581Z,98858.56
2023-03-10T03:30:27.048Z,98848.31
2023-03-10T03:32:55.152Z,98850.81
2023-03-10T03:35:28.885Z,98850.97
2023-03-10T03:37:55.899Z,98855.19
2023-03-10T03:40:24.051Z,98857.69
2023-03-10T03:42:52.893Z,98844.91
2023-03-10T03:45:23.732Z,98856.00
2023-03-10T03:47:50.412Z,98865.47
2023-03-10T03:50:18.654Z,98870.59
2023-03-10T03:52:45.318Z,98866.38
2023-03-10T03:55:14.556Z,98871.50
2023-03-10T03:57:42.280Z,98863.88
2023-03-10T04:00:12.551Z,98875.81
2023-03-10T04:02:39.118Z,98867.25
2023-03-10T04:05:06.149Z,98872.41
2023-03-10T04:07:32.587Z,98854.50
2023-03-10T04:09:59.280Z,98843.41
2023-03-10T04:12:27.400Z,98848.56
2023-03-10T04:14:53.885Z,98859.66
2023-03-10T04:17:20.429Z,98856.25
2023-03-10T04:19:54.085Z,98855.44
2023-03-10T04:22:27.214Z,98859.75
2023-03-10T04:24:54.148Z,98860.63
2023-03-10T04:27:21.035Z,98862.38
2023-03-10T04:29:47.464Z,98864.13
2023-03-10T04:32:13.934Z,98866.69
2023-03-10T04:34:40.500Z,98868.34
2023-03-10T04:37:06.986Z,98868.34
2023-03-10T04:39:33.548Z,98862.47
2023-03-10T04:42:00.107Z,98872.81
2023-03-10T04:44:31.172Z,98869.50
2023-03-10T04:46:58.487Z,98872.97
2023-03-10T04:49:25.022Z,98860.13
2023-03-10T04:51:51.525Z,98862.69
2023-03-10T04:54:18.095Z,98853.25
2023-03-10T04:56:44.546Z,98853.25
2023-03-10T04:59:11.137Z,98849.84
2023-03-10T05:01:37.708Z,98843.81
2023-03-10T05:04:05.333Z,98831.06
2023-03-10T05:06:32.341Z,98831.97
2023-03-10T05:09:00.923Z,98842.16
2023-03-10T05:11:27.419Z,98837.09
2023-03-10T05:13:53.849Z,98842.25
2023-03-10T05:16:22.503Z,98849.13
2023-03-10T05:18:49.157Z,98859.44
2023-03-10T05:21:16.407Z,98858.63
2023-03-10T05:23:42.981Z,98866.44
2023-03-10T05:26:11.130Z,98859.53
2023-03-10T05:28:38.236Z,98862.84
2023-03-10T05:31:09.645Z,98861.19
2023-03-10T05:33:36.388Z,98861.19
2023-03-10T05:36:07.520Z,98853.50
2023-03-10T05:38:34.461Z,98864.59
2023-03-10T05:41:01.238Z,98857.81
2023-03-10T05:43:27.941Z,98861.28
2023-03-10T05:45:56.187Z,98850.16
2023-03-10T05:48:22.817Z,98847.59
2023-03-10T05:51:07.345Z,98852.72
2023-03-10T05:53:35.426Z,98856.22
2023-03-10T05:56:10.381Z,98855.38
2023-03-10T05:58:37.595Z,98841.72
2023-03-10T06:01:04.436Z,98855.28
2023-03-10T06:03:32.152Z,98851.91
2023-03-10T06:05:58.932Z,98852.81
2023-03-10T06:08:28.166Z,98847.69
2023-03-10T06:10:55.605Z,98852.00
2023-03-10T06:13:22.447Z,98862.13
2023-03-10T06:15:57.667Z,98850.09
2023-03-10T06:18:24.722Z,98850.94
2023-03-10T06:20:52.249Z,98863.75
2023-03-10T06:23:19.705Z,98862.84
2023-03-10T06:25:55.043Z,98859.38
2023-03-10T06:28:21.460Z,98844.03
2023-03-10T06:30:54.442Z,98856.81
2023-03-10T06:33:20.970Z,98857.72
2023-03-10T06:35:47.445Z,98858.56
2023-03-10T06:38:14.225Z,98847.44
2023-03-10T06:40:40.817Z,98851.69
2023-03-10T06:43:07.557Z,98850.78
2023-03-10T06:45:34.057Z,98849.03
2023-03-10T06:48:00.560Z,98854.94
2023-03-10T06:50:28.484Z,98855.75
2023-03-10T06:52:55.794Z,98854.81
2023-03-10T06:55:22.200Z,98856.56
2023-03-10T06:57:48.626Z,98856.66
2023-03-10T07:00:15.855Z,98855.66
2023-03-10T07:02:43.119Z,98848.09
2023-03-10T07:05:13.564Z,98859.13
2023-03-10T07:07:40.508Z,98865.09
2023-03-10T07:10:08.388Z,98859.91
2023-03-10T07:12:34.991Z,98849.53
2023-03-10T07:15:01.606Z,98849.69
2023-03-10T07:17:28.061Z,98847.22
2023-03-10T07:19:54.650Z,98843.72
2023-03-10T07:22:21.225Z,98851.28
2023-03-10T07:24:47.669Z,98853.03
2023-03-10T07:27:14.101Z,98852.03
2023-03-10T07:29:40.534Z,98860.47
2023-03-10T07:32:07.024Z,98857.09
2023-03-10T07:34:33.508Z,98858.00
2023-03-10T07:37:00.032Z,98861.47
2023-03-10T07:39:26.649Z,98868.19
2023-03-10T07:41:53.180Z,98870.75
2023-03-10T07:44:19.662Z,98872.41
2023-03-10T07:46:46.214Z,98874.00
2023-03-10T07:49:12.702Z,98875.56
2023-03-10T07:51:39.150Z,98879.72
2023-03-10T07:54:05.651Z,98883.13
2023-03-10T07:56:32.178Z,98881.38
2023-03-10T07:58:59.677Z,98878.91
2023-03-10T08:01:26.605Z,98886.53
2023-03-10T08:03:55.343Z,98892.56
2023-03-10T08:06:25.783Z,98891.00
2023-03-10T08:08:52.802Z,98894.47
2023-03-10T08:11:20.252Z,98897.03
2023-03-10T08:13:47.607Z,98895.31
2023-03-10T08:16:15.991Z,98895.16
2023-03-10T08:18:42.830Z,98894.22
2023-03-10T08:21:09.871Z,98897.56
2023-03-10T08:23:37.821Z,98897.56
2023-03-10T08:26:07.461Z,98899.06
2023-03-10T08:28:35.357Z,98898.13
2023-03-10T08:31:09.525Z,98901.53
2023-03-10T08:33:36.614Z,98903.22
2023-03-10T08:36:15.849Z,98907.53
2023-03-10T08:38:43.139Z,98900.63
2023-03-10T08:41:31.077Z,98904.03
2023-03-10T08:43:59.244Z,98902.38
2023-03-10T08:46:28.216Z,98902.28
2023-03-10T08:48:55.964Z,98912.31
2023-03-10T08:51:23.516Z,98911.50
2023-03-10T08:53:51.491Z,98911.44
2023-03-10T08:56:21.029Z,98920.63
2023-03-10T08:58:47.925Z,98914.56
2023-03-10T09:01:16.646Z,98923.88
2023-03-10T09:03:44.797Z,98915.22
2023-03-10T09:06:11.666Z,98919.56
2023-03-10T09:08:39.700Z,98921.19
2023-03-10T09:11:06.268Z,98922.06
2023-03-10T09:13:32.730Z,98922.06
2023-03-10T09:15:59.228Z,98922.94
2023-03-10T09:18:25.872Z,98922.06
2023-03-10T09:20:52.497Z,98930.66
2023-03-10T09:23:19.020Z,98927.34
2023-03-10T09:25:45.550Z,98924.69
2023-03-10T09:28:12.456Z,98923.78
2023-03-10T09:30:42.909Z,98928.09
2023-03-10T09:33:16.301Z,98937.38
2023-03-10T09:35:52.503Z,98936.47
2023-03-10T09:38:24.733Z,98936.63
2023-03-10T09:41:03.415Z,98934.16
2023-03-10T09:43:39.924Z,98936.63
2023-03-10T09:46:31.150Z,98941.91
2023-03-10T09:49:21.502Z,98936.78
2023-03-10T09:51:51.327Z,98933.38
2023-03-10T09:54:20.960Z,98951.47
2023-03-10T09:56:47.569Z,98945.56
2023-03-10T09:59:31.748Z,98943.91
2023-03-10T10:02:01.311Z,98942.31
2023-03-10T10:04:36.696Z,98946.47
2023-03-10T10:07:11.494Z,98957.59
2023-03-10T10:09:54.182Z,98966.13
2023-03-10T10:12:23.927Z,98959.34
2023-03-10T10:14:59.283Z,98955.16
2023-03-10T10:17:52.300Z,98972.09
2023-03-10T10:20:25.317Z,98969.28
2023-03-10T10:22:51.824Z,98967.63
2023-03-10T10:25:22.468Z,98966.63
2023-03-10T10:27:52.781Z,98969.97
2023-03-10T10:30:36.101Z,98972.53
2023-03-10T10:33:08.765Z,98977.69
2023-03-10T10:35:45.390Z,98975.00
2023-03-10T10:38:13.268Z,98974.94
2023-03-10T10:41:06.991Z,98975.63
2023-03-10T10:43:43.445Z,98975.63
2023-03-10T10:46:12.048Z,98979.84
2023-03-10T10:48:46.739Z,98979.84
2023-03-10T10:51:27.170Z,98983.03
2023-03-10T10:53:54.776Z,98986.25
2023-03-10T10:56:21.924Z,98987.81
2023-03-10T10:59:17.936Z,98985.25
2023-03-10T11:01:53.375Z,98990.16
2023-03-10T11:04:20.899Z,98991.59
2023-03-10T11:06:48.827Z,98990.75
2023-03-10T11:09:20.765Z,99000.13
2023-03-10T11:11:53.356Z,98996.91
2023-03-10T11:14:45.763Z,98996.91
2023-03-10T11:17:46.637Z,99001.03
2023-03-10T11:20:40.986Z,98995.72
2023-03-10T11:23:24.799Z,98992.16
2023-03-10T11:25:57.136Z,98988.94
2023-03-10T11:28:49.331Z,98987.13
2023-03-10T11:31:46.577Z,98984.72
2023-03-10T11:34:21.573Z,98992.31
2023-03-10T11:36:58.371Z,98996.81
2023-03-10T11:39:32.207Z,98998.59
2023-03-10T11:42:18.914Z,98991.91
2023-03-10T11:45:13.830Z,98994.63
2023-03-10T11:47:50.661Z,98986.16
2023-03-10T11:50:44.940Z,98965.69
2023-03-10T11:53:18.542Z,98962.34
2023-03-10T11:55:45.540Z,98953.00
2023-03-10T11:58:26.026Z,98957.16
2023-03-10T12:00:54.592Z,98971.66
2023-03-10T12:03:48.545Z,98969.75
2023-03-10T12:06:21.054Z,98974.75
2023-03-10T12:08:51.236Z,98965.03
2023-03-10T12:11:23.520Z,98978.53
2023-03-10T12:13:53.103Z,98982.63
2023-03-10T12:16:23.999Z,98990.34
2023-03-10T12:18:50.637Z,98987.63
2023-03-10T12:21:26.104Z,98993.66
2023-03-10T12:23:55.310Z,98998.97
2023-03-10T12:26:40.902Z,98997.97
2023-03-10T12:29:22.370Z,98998.13
2023-03-10T12:31:51.555Z,98995.72
2023-03-10T12:34:28.599Z,98988.94
2023-03-10T12:37:07.216Z,98985.38
2023-03-10T12:39:44.272Z,98984.59
2023-03-10T12:42:35.014Z,98984.53
2023-03-10T12:45:21.282Z,98978.63
2023-03-10T12:47:56.255Z,98971.69
2023-03-10T12:50:35.721Z,98959.66
2023-03-10T12:53:12.054Z,98963.06
2023-03-10T12:55:41.656Z,98962.88
2023-03-10T12:58:28.089Z,98968.97
2023-03-10T13:01:02.038Z,98976.72
2023-03-10T13:03:35.415Z,98978.38
2023-03-10T13:06:07.045Z,98980.22
2023-03-10T13:08:49.412Z,98981.47
2023-03-10T13:11:25.303Z,98989.91
2023-03-10T13:13:57.267Z,98996.13
2023-03-10T13:16:23.777Z,98998.19
2023-03-10T13:18:53.002Z,99007.72
2023-03-10T13:21:31.668Z,99004.31
2023-03-10T13:23:59.400Z,99016.50
2023-03-10T13:26:27.121Z,99024.38
2023-03-10T13:28:58.187Z,99024.59
2023-03-10T13:31:27.826Z,99048.06
2023-03-10T13:33:55.613Z,99058.56
2023-03-10T13:36:39.336Z,99069.69
2023-03-10T13:39:27.266Z,99073.31
2023-03-10T13:41:58.216Z,99084.81
2023-03-10T13:44:39.348Z,99090.00
2023-03-10T13:47:17.461Z,99096.25
2023-03-10T13:49:52.605Z,99119.47
2023-03-10T13:52:25.646Z,99131.50
2023-03-10T13:54:52.374Z,99142.59
2023-03-10T13:57:23.983Z,99159.13
2023-03-10T13:59:51.897Z,99171.38
2023-03-10T14:02:23.221Z,99187.88
2023-03-10T14:04:52.692Z,99185.69
2023-03-10T14:07:22.380Z,99204.00
2023-03-10T14:10:13.253Z,99206.91
2023-03-10T14:12:43.744Z,99226.06
2023-03-10T14:15:19.048Z,99237.38
2023-03-10T14:17:48.411Z,99246.25
2023-03-10T14:20:28.356Z,99254.91
2023-03-10T14:22:54.881Z,99287.59
2023-03-10T14:25:23.175Z,99291.44
2023-03-10T14:27:57.335Z,99313.97
2023-03-10T14:30:25.898Z,99330.31
2023-03-10T14:32:53.318Z,99336.47
2023-03-10T14:35:21.591Z,99363.09
2023-03-10T14:37:52.219Z,99376.84
2023-03-10T14:40:20.712Z,99394.91
2023-03-10T14:42:48.935Z,99394.94
2023-03-10T14:45:15.354Z,99416.44
2023-03-10T14:47:42.029Z,99419.94
2023-03-10T14:50:14.600Z,99432.06
2023-03-10T14:52:41.044Z,99449.13
2023-03-10T14:55:10.171Z,99458.72
2023-03-10T14:57:38.653Z,99473.53
2023-03-10T15:00:12.583Z,99482.34
2023-03-10T15:02:39.085Z,99504.06
2023-03-10T15:05:05.793Z,99507.75
2023-03-10T15:07:32.285Z,99494.28
2023-03-10T15:10:10.612Z,99545.94
2023-03-10T15:12:38.905Z,99533.94
2023-03-10T15:15:06.031Z,99542.63
2023-03-10T15:17:32.470Z,99556.38
2023-03-10T15:19:58.946Z,99560.91
2023-03-10T15:22:25.390Z,99574.72
2023-03-10T15:24:51.817Z,99568.84
2023-03-10T15:27:18.271Z,99595.41
2023-03-10T15:29:44.756Z,99609.03
2023-03-10T15:32:11.247Z,99633.84
2023-03-10T15:34:37.756Z,99648.50
2023-03-10T15:37:07.312Z,99651.88
2023-03-10T15:39:36.888Z,99652.78
2023-03-10T15:42:03.762Z,99657.88
2023-03-10T15:44:30.271Z,99677.50
2023-03-10T15:46:56.815Z,99690.31
2023-03-10T15:49:23.280Z,99690.41
2023-03-10T15:51:49.740Z,99706.66
2023-03-10T15:54:16.276Z,99733.88
2023-03-10T15:56:42.901Z,99733.13
2023-03-10T15:59:09.696Z,99746.75
2023-03-10T16:01:36.279Z,99750.19
2023-03-10T16:04:05.783Z,99758.75
2023-03-10T16:06:33.698Z,99780.94
2023-03-10T16:09:00.910Z,99792.84
2023-03-10T16:11:27.409Z,99795.44
2023-03-10T16:13:53.900Z,99824.41
2023-03-10T16:16:23.058Z,99841.44
2023-03-10T16:18:49.814Z,99855.03
2023-03-10T16:21:18.016Z,99831.13
2023-03-10T16:23:45.427Z,99841.38
2023-03-10T16:26:14.998Z,99864.41
2023-03-10T16:28:44.364Z,99877.22
2023-03-10T16:31:13.096Z,99889.97
2023-03-10T16:33:39.892Z,99903.63
2023-03-10T16:36:11.057Z,99923.19
2023-03-10T16:38:37.565Z,99940.38
2023-03-10T16:41:04.450Z,99951.59
2023-03-10T16:43:32.750Z,99953.34
2023-03-10T16:46:12.905Z,99951.63
2023-03-10T16:48:44.728Z,99950.03
2023-03-10T16:51:38.190Z,99959.44
2023-03-10T16:54:07.540Z,99979.06
2023-03-10T16:56:41.199Z,99978.97
2023-03-10T16:59:07.804Z,99980.56
2023-03-10T17:01:34.341Z,99989.88
2023-03-10T17:04:00.877Z,100012.81
2023-03-10T17:06:29.978Z,100002.56
2023-03-10T17:08:56.911Z,99992.31
2023-03-10T17:11:29.381Z,100012.75
2023-03-10T17:13:58.354Z,100031.56
2023-03-10T17:16:28.415Z,100023.09
2023-03-10T17:19:00.488Z,100025.66
2023-03-10T17:21:32.663Z,100024.81
2023-03-10T17:23:59.330Z,100044.47
2023-03-10T17:26:25.790Z,100067.53
2023-03-10T17:28:59.326Z,100088.88
2023-03-10T17:31:27.883Z,100094.88
2023-03-10T17:33:56.956Z,100104.25
2023-03-10T17:36:23.787Z,100109.38
2023-03-10T17:38:58.077Z,100112.78
2023-03-10T17:41:25.194Z,100124.72
2023-03-10T17:43:53.688Z,100111.06
2023-03-10T17:46:25.790Z,100129.00
2023-03-10T17:48:52.750Z,100138.38
2023-03-10T17:51:31.028Z,100143.50
2023-03-10T17:53:59.784Z,100146.00
2023-03-10T17:56:27.374Z,100170.78
2023-03-10T17:58:54.962Z,100192.19
2023-03-10T18:01:25.924Z,100199.06
2023-03-10T18:03:53.203Z,100211.03
2023-03-10T18:06:25.217Z,100209.34
2023-03-10T18:08:54.233Z,100227.22
2023-03-10T18:11:22.175Z,100226.41
2023-03-10T18:13:48.943Z,100219.59
2023-03-10T18:16:24.995Z,100246.88
2023-03-10T18:18:52.562Z,100245.16
2023-03-10T18:21:19.651Z,100243.47
2023-03-10T18:23:47.444Z,100261.44
2023-03-10T18:26:16.624Z,100255.38
2023-03-10T18:28:43.433Z,100269.91
2023-03-10T18:31:17.762Z,100275.91
2023-03-10T18:33:44.233Z,100283.53
2023-03-10T18:36:13.636Z,100293.81
2023-03-10T18:38:43.428Z,100304.03
2023-03-10T18:41:10.521Z,100302.31
2023-03-10T18:43:37.004Z,100302.25
2023-03-10T18:46:03.912Z,100306.59
2023-03-10T18:48:30.632Z,100306.63
2023-03-10T18:50:59.520Z,100315.13
2023-03-10T18:53:27.359Z,100310.91
2023-03-10T18:55:54.382Z,100316.06
2023-03-10T18:58:22.133Z,100320.44
2023-03-10T19:00:50.610Z,100318.78
2023-03-10T19:03:18.270Z,100324.78
2023-03-10T19:05:45.317Z,100328.19
2023-03-10T19:08:11.823Z,100331.59
2023-03-10T19:10:39.486Z,100340.16
2023-03-10T19:13:07.689Z,100345.28
2023-03-10T19:15:36.570Z,100349.63
2023-03-10T19:18:03.454Z,100357.31
2023-03-10T19:20:29.888Z,100366.69
2023-03-10T19:22:58.022Z,100353.03
2023-03-10T19:25:24.567Z,100373.53
2023-03-10T19:27:51.185Z,100384.63
2023-03-10T19:30:20.299Z,100395.69
2023-03-10T19:32:47.337Z,100410.25
2023-03-10T19:35:15.526Z,100415.38
2023-03-10T19:37:43.597Z,100416.19
2023-03-10T19:40:14.690Z,100421.28
2023-03-10T19:42:42.908Z,100426.38
2023-03-10T19:45:11.487Z,100444.28
2023-03-10T19:47:38.753Z,100445.16
2023-03-10T19:50:06.340Z,100460.50
2023-03-10T19:52:32.922Z,100454.47
2023-03-10T19:54:59.445Z,100464.72
2023-03-10T19:57:26.029Z,100472.34
2023-03-10T19:59:52.528Z,100464.63
2023-03-10T20:02:19.319Z,100475.72
2023-03-10T20:04:47.627Z,100472.34
2023-03-10T20:07:14.167Z,100485.16
2023-03-10T20:09:40.595Z,100487.72
2023-03-10T20:12:07.086Z,100495.41
2023-03-10T20:14:33.639Z,100496.25
2023-03-10T20:17:00.116Z,100501.38
2023-03-10T20:19:26.653Z,100504.78
2023-03-10T20:21:53.183Z,100509.97
2023-03-10T20:24:20.661Z,100509.13
2023-03-10T20:26:49.031Z,100517.66
2023-03-10T20:29:15.716Z,100517.59
2023-03-10T20:31:43.975Z,100527.00
2023-03-10T20:34:17.383Z,100530.41
2023-03-10T20:36:44.150Z,100534.69
2023-03-10T20:39:10.966Z,100540.66
2023-03-10T20:41:37.372Z,100544.91
2023-03-10T20:44:08.602Z,100546.63
2023-03-10T20:46:35.433Z,100559.44
2023-03-10T20:49:01.890Z,100554.31
2023-03-10T20:51:28.336Z,100568.84
2023-03-10T20:53:56.853Z,100574.88
2023-03-10T20:56:23.295Z,100585.97
2023-03-10T20:58:49.731Z,100588.53
2023-03-10T21:01:19.053Z,100585.06
2023-03-10T21:03:45.742Z,100590.16
2023-03-10T21:06:12.293Z,100599.53
2023-03-10T21:08:38.726Z,100606.41
2023-03-10T21:11:05.241Z,100608.16
2023-03-10T21:13:31.740Z,100609.03
2023-03-10T21:15:58.478Z,100604.75
2023-03-10T21:18:25.893Z,100613.28
2023-03-10T21:20:52.282Z,100622.63
2023-03-10T21:23:18.731Z,100636.34
2023-03-10T21:25:45.256Z,100636.34
2023-03-10T21:28:11.731Z,100638.88
2023-03-10T21:30:38.853Z,100644.03
2023-03-10T21:33:05.412Z,100650.78
2023-03-10T21:35:34.314Z,100663.59
2023-03-10T21:38:00.992Z,100656.75
2023-03-10T21:40:27.916Z,100652.50
2023-03-10T21:42:54.734Z,100668.72
2023-03-10T21:45:23.808Z,100667.88
2023-03-10T21:47:50.460Z,100673.91
2023-03-10T21:50:17.706Z,100689.28
2023-03-10T21:52:46.378Z,100685.03
2023-03-10T21:55:20.271Z,100702.13
2023-03-10T21:57:47.284Z,100708.16
2023-03-10T22:00:14.673Z,100714.97
2023-03-10T22:02:41.132Z,100718.41
2023-03-10T22:05:08.112Z,100726.97
2023-03-10T22:07:34.559Z,100733.03
2023-03-10T22:10:01.079Z,100737.34
2023-03-10T22:12:27.504Z,100738.22
2023-03-10T22:15:00.543Z,100743.34
2023-03-10T22:17:27.457Z,100747.69
2023-03-10T22:19:54.872Z,100749.41
2023-03-10T22:22:22.583Z,100752.81
2023-03-10T22:24:49.654Z,100750.28
2023-03-10T22:27:16.979Z,100755.41
2023-03-10T22:29:43.514Z,100748.56
2023-03-10T22:32:10.019Z,100746.88
2023-03-10T22:34:36.410Z,100749.44
2023-03-10T22:37:03.004Z,100757.13
2023-03-10T22:39:29.432Z,100757.16
2023-03-10T22:41:55.892Z,100750.31
2023-03-10T22:44:22.888Z,100753.81
2023-03-10T22:46:49.332Z,100757.28
2023-03-10T22:49:15.840Z,100759.03
2023-03-10T22:51:42.379Z,100761.66
2023-03-10T22:54:08.871Z,100771.97
2023-03-10T22:56:35.280Z,100781.41
2023-03-10T22:59:03.941Z,100777.19
2023-03-10T23:01:30.575Z,100781.47
2023-03-10T23:03:57.343Z,100783.22
2023-03-10T23:06:26.230Z,100777.25
2023-03-10T23:08:52.787Z,100782.41
2023-03-10T23:11:20.024Z,100784.97
2023-03-10T23:13:46.437Z,100789.25
2023-03-10T23:16:12.972Z,100788.38
2023-03-10T23:18:39.629Z,100795.19
2023-03-10T23:21:07.099Z,100797.75
2023-03-10T23:23:33.806Z,100804.56
2023-03-10T23:26:00.413Z,100804.56
2023-03-10T23:28:27.066Z,100805.38
2023-03-10T23:30:54.379Z,100805.34
2023-03-10T23:33:23.340Z,100815.53
2023-03-10T23:35:56.318Z,100818.94
2023-03-10T23:38:24.972Z,100824.91
2023-03-10T23:40:52.628Z,100824.91
2023-03-10T23:43:19.130Z,100828.31
2023-03-10T23:45:45.814Z,100835.16
2023-03-10T23:48:16.141Z,100832.63
2023-03-10T23:50:44.869Z,100841.19
2023-03-10T23:53:13.217Z,100841.25
2023-03-10T23:55:42.576Z,100845.53
2023-03-10T23:58:09.735Z,100849.81
